This is the latest recevied weather packets stored in our database for station/object OK1FET-16. If no packets are shown the sender has not sent any weather packets the latest 10 day(s).
| Time | Temp. | Humidity | Pressure | Rain* | Wind** | Luminosity | Snow |
|---|---|---|---|---|---|---|---|
| 1778001095 | 14.44° C | 77% | 1003.5 hPa | - | - | - | - |
| 1778001095 | 14.44° C | 77% | 1003.5 hPa | - | - | - | - |
| 1778001094 | 14.44° C | 77% | 1003.5 hPa | - | - | - | - |
| 1778001094 | 14.44° C | 77% | 1003.5 hPa | - | - | - | - |
| 1778000284 | 14.44° C | 74% | 1003.6 hPa | - | - | - | - |
| 1778000284 | 14.44° C | 74% | 1003.6 hPa | - | - | - | - |
| 1778000284 | 14.44° C | 74% | 1003.6 hPa | - | - | - | - |
| 1777997309 | 15° C | 68% | 1004.3 hPa | - | - | - | - |
| 1777996769 | 15° C | 68% | 1004 hPa | - | - | - | - |
| 1777996503 | 15° C | 69% | 1004.4 hPa | - | - | - | - |
| 1777996503 | 15° C | 69% | 1004.4 hPa | - | - | - | - |
| 1777995692 | 15.56° C | 68% | 1004.4 hPa | - | - | - | - |
| 1777995692 | 15.56° C | 68% | 1004.4 hPa | - | - | - | - |
| 1777995688 | 15.56° C | 68% | 1004.4 hPa | - | - | - | - |
| 1777995148 | 16.11° C | 67% | 1004.4 hPa | - | - | - | - |
| 1777993260 | 16.11° C | 63% | 1004.6 hPa | - | - | - | - |
| 1777993260 | 16.11° C | 63% | 1004.6 hPa | - | - | - | - |
| 1777993256 | 16.11° C | 63% | 1004.6 hPa | - | - | - | - |
| 1777992986 | 16.11° C | 62% | 1004.6 hPa | - | - | - | - |
| 1777988666 | 17.22° C | 48% | 1005.2 hPa | - | - | - | - |
| 1777988666 | 17.22° C | 48% | 1005.2 hPa | - | - | - | - |
| 1777988666 | 17.22° C | 48% | 1005.2 hPa | - | - | - | - |
| 1777988666 | 17.22° C | 48% | 1005.2 hPa | - | - | - | - |
| 1777988125 | 18.33° C | 47% | 1005.3 hPa | - | - | - | - |
| 1777988125 | 18.33° C | 47% | 1005.3 hPa | - | - | - | - |
* Rain since midnight (hover to see other rain measurements)
** Current wind speed in m/s (hover to see current wind gust speed)